sensor_id;sensor_type;location;lat;lon;timestamp;temperature;humidity
76838;DHT22;65797;47.352;8.164;2023-07-24T00:00:20;19.30;99.90
76838;DHT22;65797;47.352;8.164;2023-07-24T00:02:46;19.30;99.90
76838;DHT22;65797;47.352;8.164;2023-07-24T00:05:12;19.20;99.90
76838;DHT22;65797;47.352;8.164;2023-07-24T00:07:38;19.00;99.90
76838;DHT22;65797;47.352;8.164;2023-07-24T00:10:04;19.00;99.90
76838;DHT22;65797;47.352;8.164;2023-07-24T00:12:30;19.10;99.90
76838;DHT22;65797;47.352;8.164;2023-07-24T00:14:56;19.20;99.90
76838;DHT22;65797;47.352;8.164;2023-07-24T00:17:21;19.30;99.90
76838;DHT22;65797;47.352;8.164;2023-07-24T00:19:49;19.30;99.90
76838;DHT22;65797;47.352;8.164;2023-07-24T00:22:15;19.30;99.90
76838;DHT22;65797;47.352;8.164;2023-07-24T00:24:40;19.30;99.90
76838;DHT22;65797;47.352;8.164;2023-07-24T00:27:06;19.40;99.90
76838;DHT22;65797;47.352;8.164;2023-07-24T00:29:32;19.50;99.90
76838;DHT22;65797;47.352;8.164;2023-07-24T00:31:57;19.60;99.90
76838;DHT22;65797;47.352;8.164;2023-07-24T00:34:23;19.70;99.90
76838;DHT22;65797;47.352;8.164;2023-07-24T00:36:49;19.70;99.90
76838;DHT22;65797;47.352;8.164;2023-07-24T00:39:15;19.60;99.90
76838;DHT22;65797;47.352;8.164;2023-07-24T00:41:41;19.50;99.90
76838;DHT22;65797;47.352;8.164;2023-07-24T00:44:07;19.40;99.90
76838;DHT22;65797;47.352;8.164;2023-07-24T00:46:35;19.30;99.90
76838;DHT22;65797;47.352;8.164;2023-07-24T00:49:02;19.30;99.90
76838;DHT22;65797;47.352;8.164;2023-07-24T00:51:28;19.30;99.90
76838;DHT22;65797;47.352;8.164;2023-07-24T00:54:00;19.20;99.90
76838;DHT22;65797;47.352;8.164;2023-07-24T00:56:26;19.20;99.90
76838;DHT22;65797;47.352;8.164;2023-07-24T00:58:54;19.30;99.90
76838;DHT22;65797;47.352;8.164;2023-07-24T01:01:23;19.40;99.90
76838;DHT22;65797;47.352;8.164;2023-07-24T01:03:49;19.40;99.90
76838;DHT22;65797;47.352;8.164;2023-07-24T01:06:16;19.40;99.90
76838;DHT22;65797;47.352;8.164;2023-07-24T01:08:42;19.40;99.90
76838;DHT22;65797;47.352;8.164;2023-07-24T01:11:33;19.40;99.90
76838;DHT22;65797;47.352;8.164;2023-07-24T01:14:13;19.40;99.90
76838;DHT22;65797;47.352;8.164;2023-07-24T01:16:42;19.40;1.00
76838;DHT22;65797;47.352;8.164;2023-07-24T01:19:17;19.30;99.90
76838;DHT22;65797;47.352;8.164;2023-07-24T01:22:06;19.40;99.90
76838;DHT22;65797;47.352;8.164;2023-07-24T01:27:26;19.40;1.00
76838;DHT22;65797;47.352;8.164;2023-07-24T01:29:51;19.40;1.00
76838;DHT22;65797;47.352;8.164;2023-07-24T01:32:18;19.40;1.00
76838;DHT22;65797;47.352;8.164;2023-07-24T01:34:45;19.40;1.00
76838;DHT22;65797;47.352;8.164;2023-07-24T01:37:12;19.40;1.00
76838;DHT22;65797;47.352;8.164;2023-07-24T01:39:40;19.40;1.00
76838;DHT22;65797;47.352;8.164;2023-07-24T01:42:07;19.50;1.00
76838;DHT22;65797;47.352;8.164;2023-07-24T01:44:33;19.50;99.90
76838;DHT22;65797;47.352;8.164;2023-07-24T01:46:59;19.50;99.90
76838;DHT22;65797;47.352;8.164;2023-07-24T01:49:24;19.50;99.90
76838;DHT22;65797;47.352;8.164;2023-07-24T01:51:50;19.40;99.90
76838;DHT22;65797;47.352;8.164;2023-07-24T01:54:16;19.30;99.90
76838;DHT22;65797;47.352;8.164;2023-07-24T01:56:42;19.30;99.90
76838;DHT22;65797;47.352;8.164;2023-07-24T01:59:09;19.30;99.90
76838;DHT22;65797;47.352;8.164;2023-07-24T02:01:35;19.20;99.90
76838;DHT22;65797;47.352;8.164;2023-07-24T02:04:01;19.20;99.90
76838;DHT22;65797;47.352;8.164;2023-07-24T02:06:27;19.20;1.00
76838;DHT22;65797;47.352;8.164;2023-07-24T02:08:52;19.20;99.90
76838;DHT22;65797;47.352;8.164;2023-07-24T02:11:18;19.20;99.90
76838;DHT22;65797;47.352;8.164;2023-07-24T02:13:44;19.10;1.00
76838;DHT22;65797;47.352;8.164;2023-07-24T02:16:11;19.00;1.00
76838;DHT22;65797;47.352;8.164;2023-07-24T02:18:38;19.10;1.00
76838;DHT22;65797;47.352;8.164;2023-07-24T02:21:03;19.10;99.90
76838;DHT22;65797;47.352;8.164;2023-07-24T02:23:29;19.10;1.00
76838;DHT22;65797;47.352;8.164;2023-07-24T02:25:55;19.10;1.00
76838;DHT22;65797;47.352;8.164;2023-07-24T02:28:20;19.00;99.90
76838;DHT22;65797;47.352;8.164;2023-07-24T02:30:47;19.00;1.00
76838;DHT22;65797;47.352;8.164;2023-07-24T02:33:13;18.80;1.00
76838;DHT22;65797;47.352;8.164;2023-07-24T02:35:42;18.80;1.00
76838;DHT22;65797;47.352;8.164;2023-07-24T02:38:08;18.80;1.00
76838;DHT22;65797;47.352;8.164;2023-07-24T02:40:35;18.80;1.00
76838;DHT22;65797;47.352;8.164;2023-07-24T02:43:01;18.80;1.00
76838;DHT22;65797;47.352;8.164;2023-07-24T02:45:26;18.80;1.00
76838;DHT22;65797;47.352;8.164;2023-07-24T02:47:52;18.60;1.00
76838;DHT22;65797;47.352;8.164;2023-07-24T02:50:18;18.60;1.00
76838;DHT22;65797;47.352;8.164;2023-07-24T02:52:43;18.60;1.00
76838;DHT22;65797;47.352;8.164;2023-07-24T02:55:09;18.50;1.00
76838;DHT22;65797;47.352;8.164;2023-07-24T02:57:35;18.40;1.00
76838;DHT22;65797;47.352;8.164;2023-07-24T03:00:01;18.40;1.00
76838;DHT22;65797;47.352;8.164;2023-07-24T03:02:27;18.40;1.00
76838;DHT22;65797;47.352;8.164;2023-07-24T03:04:52;18.40;1.00
76838;DHT22;65797;47.352;8.164;2023-07-24T03:07:18;18.20;1.00
76838;DHT22;65797;47.352;8.164;2023-07-24T03:09:44;18.20;1.00
76838;DHT22;65797;47.352;8.164;2023-07-24T03:12:10;18.30;1.00
76838;DHT22;65797;47.352;8.164;2023-07-24T03:14:36;18.30;1.00
76838;DHT22;65797;47.352;8.164;2023-07-24T03:17:02;18.30;1.00
76838;DHT22;65797;47.352;8.164;2023-07-24T03:19:28;18.30;1.00
76838;DHT22;65797;47.352;8.164;2023-07-24T03:21:54;18.20;1.00
76838;DHT22;65797;47.352;8.164;2023-07-24T03:24:19;18.20;1.00
76838;DHT22;65797;47.352;8.164;2023-07-24T03:26:45;18.30;1.00
76838;DHT22;65797;47.352;8.164;2023-07-24T03:29:11;18.30;1.00
76838;DHT22;65797;47.352;8.164;2023-07-24T03:31:36;18.30;1.00
76838;DHT22;65797;47.352;8.164;2023-07-24T03:34:02;18.30;1.00
76838;DHT22;65797;47.352;8.164;2023-07-24T03:36:28;18.30;1.00
76838;DHT22;65797;47.352;8.164;2023-07-24T03:38:53;18.10;1.00
76838;DHT22;65797;47.352;8.164;2023-07-24T03:41:20;18.10;1.00
76838;DHT22;65797;47.352;8.164;2023-07-24T03:43:45;18.10;1.00
76838;DHT22;65797;47.352;8.164;2023-07-24T03:46:11;18.10;1.00
76838;DHT22;65797;47.352;8.164;2023-07-24T03:48:37;18.10;1.00
76838;DHT22;65797;47.352;8.164;2023-07-24T03:51:03;18.20;1.00
76838;DHT22;65797;47.352;8.164;2023-07-24T03:53:28;18.10;1.00
76838;DHT22;65797;47.352;8.164;2023-07-24T03:55:54;18.20;1.00
76838;DHT22;65797;47.352;8.164;2023-07-24T03:58:20;18.20;1.00
76838;DHT22;65797;47.352;8.164;2023-07-24T04:00:46;18.30;1.00
76838;DHT22;65797;47.352;8.164;2023-07-24T04:03:12;18.30;1.00
76838;DHT22;65797;47.352;8.164;2023-07-24T04:05:38;18.30;1.00
76838;DHT22;65797;47.352;8.164;2023-07-24T04:08:04;18.40;1.00
76838;DHT22;65797;47.352;8.164;2023-07-24T04:10:29;18.40;1.00
76838;DHT22;65797;47.352;8.164;2023-07-24T04:12:56;18.40;1.00
76838;DHT22;65797;47.352;8.164;2023-07-24T04:15:23;18.40;1.00
76838;DHT22;65797;47.352;8.164;2023-07-24T04:17:48;18.50;1.00
76838;DHT22;65797;47.352;8.164;2023-07-24T04:20:14;18.50;1.00
76838;DHT22;65797;47.352;8.164;2023-07-24T04:22:40;18.50;1.00
76838;DHT22;65797;47.352;8.164;2023-07-24T04:25:06;18.50;1.00
76838;DHT22;65797;47.352;8.164;2023-07-24T04:27:32;18.60;1.00
76838;DHT22;65797;47.352;8.164;2023-07-24T04:29:58;18.60;1.00
76838;DHT22;65797;47.352;8.164;2023-07-24T04:32:26;18.50;1.00
76838;DHT22;65797;47.352;8.164;2023-07-24T04:34:53;18.30;99.90
76838;DHT22;65797;47.352;8.164;2023-07-24T04:37:18;18.30;99.90
76838;DHT22;65797;47.352;8.164;2023-07-24T04:39:44;18.40;99.90
76838;DHT22;65797;47.352;8.164;2023-07-24T04:42:10;18.30;99.90
76838;DHT22;65797;47.352;8.164;2023-07-24T04:44:36;18.40;99.90
76838;DHT22;65797;47.352;8.164;2023-07-24T04:47:01;18.30;99.90
76838;DHT22;65797;47.352;8.164;2023-07-24T04:49:31;18.40;99.90
76838;DHT22;65797;47.352;8.164;2023-07-24T04:51:58;18.30;99.90
76838;DHT22;65797;47.352;8.164;2023-07-24T04:54:24;18.30;99.90
76838;DHT22;65797;47.352;8.164;2023-07-24T04:56:50;18.30;1.00
76838;DHT22;65797;47.352;8.164;2023-07-24T04:59:16;18.30;1.00
76838;DHT22;65797;47.352;8.164;2023-07-24T05:01:42;18.40;99.90
76838;DHT22;65797;47.352;8.164;2023-07-24T05:04:08;18.40;99.90
76838;DHT22;65797;47.352;8.164;2023-07-24T05:06:34;18.40;1.00
76838;DHT22;65797;47.352;8.164;2023-07-24T05:09:01;18.30;1.00
76838;DHT22;65797;47.352;8.164;2023-07-24T05:11:27;18.20;99.90
76838;DHT22;65797;47.352;8.164;2023-07-24T05:13:53;18.20;99.90
76838;DHT22;65797;47.352;8.164;2023-07-24T05:16:19;18.30;99.90
76838;DHT22;65797;47.352;8.164;2023-07-24T05:18:44;18.40;99.90
76838;DHT22;65797;47.352;8.164;2023-07-24T05:21:10;18.40;1.00
76838;DHT22;65797;47.352;8.164;2023-07-24T05:23:36;18.50;99.90
76838;DHT22;65797;47.352;8.164;2023-07-24T05:26:03;18.50;99.90
76838;DHT22;65797;47.352;8.164;2023-07-24T05:28:30;18.50;99.90
76838;DHT22;65797;47.352;8.164;2023-07-24T05:30:56;18.50;1.00
76838;DHT22;65797;47.352;8.164;2023-07-24T05:33:24;18.50;99.90
76838;DHT22;65797;47.352;8.164;2023-07-24T05:35:50;18.50;99.90
76838;DHT22;65797;47.352;8.164;2023-07-24T05:38:16;18.60;99.90
76838;DHT22;65797;47.352;8.164;2023-07-24T05:40:42;18.50;99.90
76838;DHT22;65797;47.352;8.164;2023-07-24T05:43:07;18.50;99.90
76838;DHT22;65797;47.352;8.164;2023-07-24T05:45:33;18.50;1.00
76838;DHT22;65797;47.352;8.164;2023-07-24T05:47:59;18.50;1.00
76838;DHT22;65797;47.352;8.164;2023-07-24T05:50:25;18.50;1.00
76838;DHT22;65797;47.352;8.164;2023-07-24T05:52:50;18.50;1.00
76838;DHT22;65797;47.352;8.164;2023-07-24T05:55:16;18.60;1.00
76838;DHT22;65797;47.352;8.164;2023-07-24T05:57:42;18.70;1.00
76838;DHT22;65797;47.352;8.164;2023-07-24T06:00:08;18.80;99.90
76838;DHT22;65797;47.352;8.164;2023-07-24T06:02:33;18.90;99.90
76838;DHT22;65797;47.352;8.164;2023-07-24T06:04:59;19.10;99.90
76838;DHT22;65797;47.352;8.164;2023-07-24T06:07:25;19.10;99.90
76838;DHT22;65797;47.352;8.164;2023-07-24T06:09:50;19.10;1.00
76838;DHT22;65797;47.352;8.164;2023-07-24T06:12:16;19.10;1.00
76838;DHT22;65797;47.352;8.164;2023-07-24T06:14:42;19.00;1.00
76838;DHT22;65797;47.352;8.164;2023-07-24T06:17:08;19.10;99.90
76838;DHT22;65797;47.352;8.164;2023-07-24T06:19:34;19.00;99.90
76838;DHT22;65797;47.352;8.164;2023-07-24T06:22:00;19.00;99.90
76838;DHT22;65797;47.352;8.164;2023-07-24T06:24:25;19.00;1.00
76838;DHT22;65797;47.352;8.164;2023-07-24T06:26:51;19.00;99.90
76838;DHT22;65797;47.352;8.164;2023-07-24T06:29:17;18.80;99.90
76838;DHT22;65797;47.352;8.164;2023-07-24T06:31:42;18.80;99.90
76838;DHT22;65797;47.352;8.164;2023-07-24T06:34:08;18.90;1.00
76838;DHT22;65797;47.352;8.164;2023-07-24T06:36:34;19.00;1.00
76838;DHT22;65797;47.352;8.164;2023-07-24T06:38:59;19.00;99.90
76838;DHT22;65797;47.352;8.164;2023-07-24T06:41:25;19.00;99.90
76838;DHT22;65797;47.352;8.164;2023-07-24T06:43:51;19.00;99.90
76838;DHT22;65797;47.352;8.164;2023-07-24T06:46:17;19.10;99.90
76838;DHT22;65797;47.352;8.164;2023-07-24T06:48:43;19.30;1.00
76838;DHT22;65797;47.352;8.164;2023-07-24T06:51:08;19.40;99.90
76838;DHT22;65797;47.352;8.164;2023-07-24T06:53:34;19.60;1.00
76838;DHT22;65797;47.352;8.164;2023-07-24T06:56:00;19.60;99.90
76838;DHT22;65797;47.352;8.164;2023-07-24T06:58:26;19.70;99.90
76838;DHT22;65797;47.352;8.164;2023-07-24T07:00:51;19.80;1.00
76838;DHT22;65797;47.352;8.164;2023-07-24T07:03:17;19.80;1.00
76838;DHT22;65797;47.352;8.164;2023-07-24T07:05:43;19.80;1.00
76838;DHT22;65797;47.352;8.164;2023-07-24T07:08:10;19.70;1.00
76838;DHT22;65797;47.352;8.164;2023-07-24T07:10:35;19.50;1.00
76838;DHT22;65797;47.352;8.164;2023-07-24T07:13:01;19.70;1.00
76838;DHT22;65797;47.352;8.164;2023-07-24T07:15:27;19.70;1.00
76838;DHT22;65797;47.352;8.164;2023-07-24T07:17:53;19.80;1.00
76838;DHT22;65797;47.352;8.164;2023-07-24T07:20:18;19.80;1.00
76838;DHT22;65797;47.352;8.164;2023-07-24T07:22:44;19.70;1.00
76838;DHT22;65797;47.352;8.164;2023-07-24T07:25:10;19.70;1.00
76838;DHT22;65797;47.352;8.164;2023-07-24T07:27:36;19.80;85.20
76838;DHT22;65797;47.352;8.164;2023-07-24T07:30:02;19.70;1.00
76838;DHT22;65797;47.352;8.164;2023-07-24T07:32:28;19.60;1.00
76838;DHT22;65797;47.352;8.164;2023-07-24T07:34:54;19.70;1.00
76838;DHT22;65797;47.352;8.164;2023-07-24T07:37:19;19.70;73.00
76838;DHT22;65797;47.352;8.164;2023-07-24T07:39:45;19.70;49.00
76838;DHT22;65797;47.352;8.164;2023-07-24T07:42:11;19.70;99.90
76838;DHT22;65797;47.352;8.164;2023-07-24T07:44:36;19.60;99.90
76838;DHT22;65797;47.352;8.164;2023-07-24T07:47:02;19.60;99.90
76838;DHT22;65797;47.352;8.164;2023-07-24T07:49:28;19.50;34.80
76838;DHT22;65797;47.352;8.164;2023-07-24T07:51:54;19.70;99.90
76838;DHT22;65797;47.352;8.164;2023-07-24T07:54:20;19.80;99.90
76838;DHT22;65797;47.352;8.164;2023-07-24T07:56:46;20.00;99.90
76838;DHT22;65797;47.352;8.164;2023-07-24T07:59:11;20.10;1.00
76838;DHT22;65797;47.352;8.164;2023-07-24T08:01:37;20.20;1.00
76838;DHT22;65797;47.352;8.164;2023-07-24T08:04:05;20.30;1.00
76838;DHT22;65797;47.352;8.164;2023-07-24T08:06:30;20.30;1.00
76838;DHT22;65797;47.352;8.164;2023-07-24T08:08:56;20.40;1.00
76838;DHT22;65797;47.352;8.164;2023-07-24T08:11:23;20.50;1.00
76838;DHT22;65797;47.352;8.164;2023-07-24T08:13:49;20.70;1.00
76838;DHT22;65797;47.352;8.164;2023-07-24T08:16:15;20.90;99.90
76838;DHT22;65797;47.352;8.164;2023-07-24T08:18:47;21.10;99.90
76838;DHT22;65797;47.352;8.164;2023-07-24T08:21:14;21.00;9.60
76838;DHT22;65797;47.352;8.164;2023-07-24T08:23:40;21.20;99.90
76838;DHT22;65797;47.352;8.164;2023-07-24T08:26:06;21.50;5.00
76838;DHT22;65797;47.352;8.164;2023-07-24T08:28:33;21.70;20.70
76838;DHT22;65797;47.352;8.164;2023-07-24T08:31:01;21.90;1.00
76838;DHT22;65797;47.352;8.164;2023-07-24T08:33:28;22.10;1.00
76838;DHT22;65797;47.352;8.164;2023-07-24T08:36:07;22.20;1.00
76838;DHT22;65797;47.352;8.164;2023-07-24T08:38:34;22.40;1.00
76838;DHT22;65797;47.352;8.164;2023-07-24T08:41:08;22.50;1.00
76838;DHT22;65797;47.352;8.164;2023-07-24T08:43:35;22.70;1.00
76838;DHT22;65797;47.352;8.164;2023-07-24T08:46:02;23.30;99.90
76838;DHT22;65797;47.352;8.164;2023-07-24T08:48:33;23.80;99.90
76838;DHT22;65797;47.352;8.164;2023-07-24T08:51:08;23.90;1.00
76838;DHT22;65797;47.352;8.164;2023-07-24T08:53:36;24.00;99.90
76838;DHT22;65797;47.352;8.164;2023-07-24T08:56:07;24.70;99.90
76838;DHT22;65797;47.352;8.164;2023-07-24T08:58:33;24.90;99.90
76838;DHT22;65797;47.352;8.164;2023-07-24T09:01:00;25.10;99.90
76838;DHT22;65797;47.352;8.164;2023-07-24T09:03:26;25.50;99.90
76838;DHT22;65797;47.352;8.164;2023-07-24T09:05:52;25.80;99.90
76838;DHT22;65797;47.352;8.164;2023-07-24T09:08:41;26.30;99.90
76838;DHT22;65797;47.352;8.164;2023-07-24T09:11:08;26.40;99.90
76838;DHT22;65797;47.352;8.164;2023-07-24T09:13:43;26.80;99.90
76838;DHT22;65797;47.352;8.164;2023-07-24T09:16:09;26.90;99.90
76838;DHT22;65797;47.352;8.164;2023-07-24T09:18:43;26.80;99.90
76838;DHT22;65797;47.352;8.164;2023-07-24T09:21:10;26.60;99.90
76838;DHT22;65797;47.352;8.164;2023-07-24T09:23:37;26.80;99.90
76838;DHT22;65797;47.352;8.164;2023-07-24T09:26:07;26.30;99.90
76838;DHT22;65797;47.352;8.164;2023-07-24T09:28:33;25.50;99.90
76838;DHT22;65797;47.352;8.164;2023-07-24T09:30:59;25.40;99.90
76838;DHT22;65797;47.352;8.164;2023-07-24T09:36:01;24.80;99.90
76838;DHT22;65797;47.352;8.164;2023-07-24T09:38:27;24.80;99.90
76838;DHT22;65797;47.352;8.164;2023-07-24T09:40:53;24.70;99.90
76838;DHT22;65797;47.352;8.164;2023-07-24T09:43:25;24.60;99.90
76838;DHT22;65797;47.352;8.164;2023-07-24T09:45:52;24.80;99.90
76838;DHT22;65797;47.352;8.164;2023-07-24T09:48:19;24.90;99.90
76838;DHT22;65797;47.352;8.164;2023-07-24T09:50:47;24.60;99.90
76838;DHT22;65797;47.352;8.164;2023-07-24T09:53:22;24.60;99.90
76838;DHT22;65797;47.352;8.164;2023-07-24T09:55:58;24.60;99.90
76838;DHT22;65797;47.352;8.164;2023-07-24T09:58:25;24.40;99.90
76838;DHT22;65797;47.352;8.164;2023-07-24T10:00:52;24.30;99.90
76838;DHT22;65797;47.352;8.164;2023-07-24T10:03:19;24.30;99.90
76838;DHT22;65797;47.352;8.164;2023-07-24T10:05:46;24.40;99.90
76838;DHT22;65797;47.352;8.164;2023-07-24T10:08:14;24.40;99.90
76838;DHT22;65797;47.352;8.164;2023-07-24T10:10:40;24.40;99.90
76838;DHT22;65797;47.352;8.164;2023-07-24T10:13:07;24.30;99.90
76838;DHT22;65797;47.352;8.164;2023-07-24T10:15:37;24.20;99.90
76838;DHT22;65797;47.352;8.164;2023-07-24T10:18:04;24.10;99.90
76838;DHT22;65797;47.352;8.164;2023-07-24T10:20:39;24.10;99.90
76838;DHT22;65797;47.352;8.164;2023-07-24T10:23:10;24.00;99.90
76838;DHT22;65797;47.352;8.164;2023-07-24T10:25:39;23.80;99.90
76838;DHT22;65797;47.352;8.164;2023-07-24T10:28:10;23.70;99.90
76838;DHT22;65797;47.352;8.164;2023-07-24T10:30:41;23.50;99.90
76838;DHT22;65797;47.352;8.164;2023-07-24T10:33:12;23.60;99.90
76838;DHT22;65797;47.352;8.164;2023-07-24T10:35:39;23.40;99.90
76838;DHT22;65797;47.352;8.164;2023-07-24T10:38:06;22.80;1.00
76838;DHT22;65797;47.352;8.164;2023-07-24T10:40:33;23.00;1.00
76838;DHT22;65797;47.352;8.164;2023-07-24T10:43:06;23.10;99.90
76838;DHT22;65797;47.352;8.164;2023-07-24T11:01:35;20.90;99.90
76838;DHT22;65797;47.352;8.164;2023-07-24T11:04:02;21.10;1.00
76838;DHT22;65797;47.352;8.164;2023-07-24T11:11:38;22.00;1.00
76838;DHT22;65797;47.352;8.164;2023-07-24T11:14:04;22.10;99.90
76838;DHT22;65797;47.352;8.164;2023-07-24T11:16:30;22.00;1.00
76838;DHT22;65797;47.352;8.164;2023-07-24T11:18:56;22.00;99.90
76838;DHT22;65797;47.352;8.164;2023-07-24T11:21:23;22.00;99.90
76838;DHT22;65797;47.352;8.164;2023-07-24T11:23:54;21.80;99.90
76838;DHT22;65797;47.352;8.164;2023-07-24T11:26:22;21.50;1.00
76838;DHT22;65797;47.352;8.164;2023-07-24T11:28:49;21.40;1.00
76838;DHT22;65797;47.352;8.164;2023-07-24T11:31:15;21.40;99.90
76838;DHT22;65797;47.352;8.164;2023-07-24T11:33:41;21.50;99.90
76838;DHT22;65797;47.352;8.164;2023-07-24T11:36:09;21.20;99.90
76838;DHT22;65797;47.352;8.164;2023-07-24T11:38:35;21.50;99.90
76838;DHT22;65797;47.352;8.164;2023-07-24T11:41:03;21.80;1.00
76838;DHT22;65797;47.352;8.164;2023-07-24T11:43:29;22.00;99.90
76838;DHT22;65797;47.352;8.164;2023-07-24T11:45:55;22.00;99.90
76838;DHT22;65797;47.352;8.164;2023-07-24T11:48:22;22.10;99.90
76838;DHT22;65797;47.352;8.164;2023-07-24T11:50:56;21.90;99.90
76838;DHT22;65797;47.352;8.164;2023-07-24T11:53:31;21.90;99.90
76838;DHT22;65797;47.352;8.164;2023-07-24T11:55:59;22.10;99.90
76838;DHT22;65797;47.352;8.164;2023-07-24T11:58:29;22.10;99.90
76838;DHT22;65797;47.352;8.164;2023-07-24T12:00:55;22.30;99.90
76838;DHT22;65797;47.352;8.164;2023-07-24T12:03:24;22.60;99.90
76838;DHT22;65797;47.352;8.164;2023-07-24T12:05:51;22.40;99.90
76838;DHT22;65797;47.352;8.164;2023-07-24T12:08:17;22.40;99.90
76838;DHT22;65797;47.352;8.164;2023-07-24T12:10:44;22.20;99.90
76838;DHT22;65797;47.352;8.164;2023-07-24T12:13:10;22.40;99.90
76838;DHT22;65797;47.352;8.164;2023-07-24T12:15:36;22.60;99.90
76838;DHT22;65797;47.352;8.164;2023-07-24T12:18:04;22.60;99.90
76838;DHT22;65797;47.352;8.164;2023-07-24T12:20:30;23.30;99.90
76838;DHT22;65797;47.352;8.164;2023-07-24T12:22:56;23.40;99.90
76838;DHT22;65797;47.352;8.164;2023-07-24T12:25:22;23.60;99.90
76838;DHT22;65797;47.352;8.164;2023-07-24T12:27:49;23.90;99.90
76838;DHT22;65797;47.352;8.164;2023-07-24T12:30:14;24.10;99.90
76838;DHT22;65797;47.352;8.164;2023-07-24T12:32:40;24.20;99.90
76838;DHT22;65797;47.352;8.164;2023-07-24T12:35:08;24.50;99.90
76838;DHT22;65797;47.352;8.164;2023-07-24T12:37:34;24.00;99.90
76838;DHT22;65797;47.352;8.164;2023-07-24T12:39:59;24.00;99.90
76838;DHT22;65797;47.352;8.164;2023-07-24T12:42:25;24.00;99.90
76838;DHT22;65797;47.352;8.164;2023-07-24T12:44:52;24.00;99.90
76838;DHT22;65797;47.352;8.164;2023-07-24T12:47:18;24.30;99.90
76838;DHT22;65797;47.352;8.164;2023-07-24T12:49:43;24.60;99.90
76838;DHT22;65797;47.352;8.164;2023-07-24T12:52:10;24.70;99.90
76838;DHT22;65797;47.352;8.164;2023-07-24T12:54:36;24.80;99.90
76838;DHT22;65797;47.352;8.164;2023-07-24T12:57:02;25.20;99.90
76838;DHT22;65797;47.352;8.164;2023-07-24T12:59:28;25.30;99.90
76838;DHT22;65797;47.352;8.164;2023-07-24T13:01:54;25.10;99.90
76838;DHT22;65797;47.352;8.164;2023-07-24T13:04:22;25.00;99.90
76838;DHT22;65797;47.352;8.164;2023-07-24T13:06:48;25.00;99.90
76838;DHT22;65797;47.352;8.164;2023-07-24T13:09:13;25.00;99.90
76838;DHT22;65797;47.352;8.164;2023-07-24T13:11:39;25.00;99.90
76838;DHT22;65797;47.352;8.164;2023-07-24T13:14:05;25.00;99.90
76838;DHT22;65797;47.352;8.164;2023-07-24T13:16:31;24.80;99.90
76838;DHT22;65797;47.352;8.164;2023-07-24T13:18:56;24.40;99.90
76838;DHT22;65797;47.352;8.164;2023-07-24T13:21:22;24.50;99.90
76838;DHT22;65797;47.352;8.164;2023-07-24T13:23:48;24.40;99.90
76838;DHT22;65797;47.352;8.164;2023-07-24T13:26:15;24.50;99.90
76838;DHT22;65797;47.352;8.164;2023-07-24T13:28:41;24.20;99.90
76838;DHT22;65797;47.352;8.164;2023-07-24T13:38:52;24.30;99.90
76838;DHT22;65797;47.352;8.164;2023-07-24T13:41:18;24.10;99.90
76838;DHT22;65797;47.352;8.164;2023-07-24T13:48:55;23.70;99.90
76838;DHT22;65797;47.352;8.164;2023-07-24T13:51:20;23.50;99.90
76838;DHT22;65797;47.352;8.164;2023-07-24T13:53:46;23.50;99.90
76838;DHT22;65797;47.352;8.164;2023-07-24T13:56:13;23.60;99.90
76838;DHT22;65797;47.352;8.164;2023-07-24T13:58:39;23.60;99.90
76838;DHT22;65797;47.352;8.164;2023-07-24T14:01:05;23.70;99.90
76838;DHT22;65797;47.352;8.164;2023-07-24T14:03:33;23.90;99.90
76838;DHT22;65797;47.352;8.164;2023-07-24T14:05:59;23.90;99.90
76838;DHT22;65797;47.352;8.164;2023-07-24T14:08:25;24.10;99.90
76838;DHT22;65797;47.352;8.164;2023-07-24T14:10:51;24.00;99.90
76838;DHT22;65797;47.352;8.164;2023-07-24T14:13:17;24.10;99.90
76838;DHT22;65797;47.352;8.164;2023-07-24T14:15:43;23.90;99.90
76838;DHT22;65797;47.352;8.164;2023-07-24T14:18:08;23.70;99.90
76838;DHT22;65797;47.352;8.164;2023-07-24T14:20:34;23.50;99.90
76838;DHT22;65797;47.352;8.164;2023-07-24T14:22:59;23.20;99.90
76838;DHT22;65797;47.352;8.164;2023-07-24T14:25:25;23.20;99.90
76838;DHT22;65797;47.352;8.164;2023-07-24T14:27:51;22.90;99.90
76838;DHT22;65797;47.352;8.164;2023-07-24T14:30:17;22.70;99.90
76838;DHT22;65797;47.352;8.164;2023-07-24T14:32:42;22.60;99.90
76838;DHT22;65797;47.352;8.164;2023-07-24T14:35:08;22.60;99.90
76838;DHT22;65797;47.352;8.164;2023-07-24T14:37:34;22.40;99.90
76838;DHT22;65797;47.352;8.164;2023-07-24T14:39:59;22.00;99.90
76838;DHT22;65797;47.352;8.164;2023-07-24T14:42:25;21.90;99.90
76838;DHT22;65797;47.352;8.164;2023-07-24T14:44:51;22.00;99.90
76838;DHT22;65797;47.352;8.164;2023-07-24T14:47:17;22.10;99.90
76838;DHT22;65797;47.352;8.164;2023-07-24T14:49:42;22.00;99.90
76838;DHT22;65797;47.352;8.164;2023-07-24T14:52:08;21.90;99.90
76838;DHT22;65797;47.352;8.164;2023-07-24T14:54:34;21.80;99.90
76838;DHT22;65797;47.352;8.164;2023-07-24T14:57:00;21.80;99.90
76838;DHT22;65797;47.352;8.164;2023-07-24T14:59:27;21.90;99.90
76838;DHT22;65797;47.352;8.164;2023-07-24T15:01:53;22.10;99.90
76838;DHT22;65797;47.352;8.164;2023-07-24T15:04:19;22.20;99.90
76838;DHT22;65797;47.352;8.164;2023-07-24T15:06:44;22.10;99.90
76838;DHT22;65797;47.352;8.164;2023-07-24T15:09:10;21.80;99.90
76838;DHT22;65797;47.352;8.164;2023-07-24T15:11:36;22.00;99.90
76838;DHT22;65797;47.352;8.164;2023-07-24T15:14:02;21.90;99.90
76838;DHT22;65797;47.352;8.164;2023-07-24T15:16:28;21.90;99.90
76838;DHT22;65797;47.352;8.164;2023-07-24T15:18:53;21.90;99.90
76838;DHT22;65797;47.352;8.164;2023-07-24T15:21:19;22.10;99.90
76838;DHT22;65797;47.352;8.164;2023-07-24T15:23:45;22.10;99.90
76838;DHT22;65797;47.352;8.164;2023-07-24T15:26:17;22.50;99.90
76838;DHT22;65797;47.352;8.164;2023-07-24T15:28:42;22.60;99.90
76838;DHT22;65797;47.352;8.164;2023-07-24T15:31:09;22.50;99.90
76838;DHT22;65797;47.352;8.164;2023-07-24T15:33:35;22.50;99.90
76838;DHT22;65797;47.352;8.164;2023-07-24T15:36:01;22.60;99.90
76838;DHT22;65797;47.352;8.164;2023-07-24T15:38:27;22.80;99.90
76838;DHT22;65797;47.352;8.164;2023-07-24T15:40:52;22.60;99.90
76838;DHT22;65797;47.352;8.164;2023-07-24T15:43:18;22.60;99.90
76838;DHT22;65797;47.352;8.164;2023-07-24T15:45:44;22.80;99.90
76838;DHT22;65797;47.352;8.164;2023-07-24T15:48:09;22.90;99.90
76838;DHT22;65797;47.352;8.164;2023-07-24T15:50:35;23.00;99.90
76838;DHT22;65797;47.352;8.164;2023-07-24T15:53:01;23.10;99.90
76838;DHT22;65797;47.352;8.164;2023-07-24T15:55:26;22.80;99.90
76838;DHT22;65797;47.352;8.164;2023-07-24T15:57:52;22.80;99.90
76838;DHT22;65797;47.352;8.164;2023-07-24T16:00:18;22.80;99.90
76838;DHT22;65797;47.352;8.164;2023-07-24T16:02:44;22.60;99.90
76838;DHT22;65797;47.352;8.164;2023-07-24T16:05:20;22.50;99.90
76838;DHT22;65797;47.352;8.164;2023-07-24T16:07:47;22.60;99.90
76838;DHT22;65797;47.352;8.164;2023-07-24T16:10:14;22.70;99.90